createdAt,value
2023-04-30T00:00:14.223Z,20.50
2023-04-30T00:05:17.186Z,20.50
2023-04-30T00:10:20.208Z,20.60
2023-04-30T00:15:24.448Z,20.50
2023-04-30T00:20:27.335Z,20.50
2023-04-30T00:25:30.200Z,20.50
2023-04-30T00:30:34.460Z,20.50
2023-04-30T00:35:37.334Z,20.50
2023-04-30T00:40:42.047Z,20.50
2023-04-30T00:45:46.314Z,20.50
2023-04-30T00:50:49.227Z,20.50
2023-04-30T00:55:52.712Z,20.50
2023-04-30T01:00:57.147Z,20.50
2023-04-30T01:06:00.109Z,20.50
2023-04-30T01:11:14.341Z,20.50
2023-04-30T01:16:23.928Z,20.50
2023-04-30T01:21:30.763Z,20.40
2023-04-30T01:26:49.744Z,20.50
2023-04-30T01:31:53.980Z,20.50
2023-04-30T01:37:07.139Z,20.50
2023-04-30T01:42:14.962Z,20.40
2023-04-30T01:47:31.398Z,20.50
2023-04-30T01:52:42.936Z,20.40
2023-04-30T01:57:54.665Z,20.40
2023-04-30T02:02:59.094Z,20.40
2023-04-30T02:08:01.986Z,20.40
2023-04-30T02:13:04.990Z,20.40
2023-04-30T02:18:09.271Z,20.40
2023-04-30T02:23:12.241Z,20.30
2023-04-30T02:28:15.114Z,20.40
2023-04-30T02:33:19.364Z,20.40
2023-04-30T02:38:22.580Z,20.40
2023-04-30T02:43:25.459Z,20.40
2023-04-30T02:48:29.714Z,20.40
2023-04-30T02:53:32.630Z,20.40
2023-04-30T02:58:35.864Z,20.30
2023-04-30T03:03:40.121Z,20.40
2023-04-30T03:08:43.042Z,20.40
2023-04-30T03:13:46.341Z,20.30
2023-04-30T03:18:51.162Z,20.40
2023-04-30T03:23:54.107Z,20.30
2023-04-30T03:28:57.005Z,20.30
2023-04-30T03:34:01.266Z,20.30
2023-04-30T03:39:04.522Z,20.30
2023-04-30T03:44:08.756Z,20.30
2023-04-30T03:49:13.051Z,20.30
2023-04-30T03:54:16.064Z,20.30
2023-04-30T03:59:19.321Z,20.30
2023-04-30T04:04:23.699Z,20.30
2023-04-30T04:09:27.276Z,20.30
2023-04-30T04:14:30.245Z,20.30
2023-04-30T04:19:34.491Z,20.30
2023-04-30T04:24:38.345Z,20.30
2023-04-30T04:29:41.192Z,20.30
2023-04-30T04:34:45.866Z,20.30
2023-04-30T04:39:48.731Z,20.30
2023-04-30T04:44:51.947Z,20.30
2023-04-30T04:49:56.470Z,20.30
2023-04-30T04:54:59.653Z,20.30
2023-04-30T05:00:02.642Z,20.30
2023-04-30T05:05:07.889Z,20.30
2023-04-30T05:10:11.208Z,20.30
2023-04-30T05:15:14.090Z,20.30
2023-04-30T05:20:18.518Z,20.30
2023-04-30T05:25:21.481Z,20.30
2023-04-30T05:30:24.420Z,20.30
2023-04-30T05:35:28.856Z,20.30
2023-04-30T05:40:31.787Z,20.30
2023-04-30T05:45:34.794Z,20.30
2023-04-30T05:50:39.042Z,20.30
2023-04-30T05:55:42.308Z,20.30
2023-04-30T06:00:45.193Z,20.30
2023-04-30T06:05:49.631Z,20.30
2023-04-30T06:10:52.708Z,20.30
2023-04-30T06:15:55.661Z,20.30
2023-04-30T06:20:59.900Z,20.30
2023-04-30T06:26:02.809Z,20.40
2023-04-30T06:31:06.022Z,20.40
2023-04-30T06:36:10.449Z,20.40
2023-04-30T06:41:13.477Z,20.20
2023-04-30T06:46:16.553Z,20.10
2023-04-30T06:51:20.982Z,19.90
2023-04-30T06:56:25.029Z,20.00
2023-04-30T07:01:27.995Z,20.10
2023-04-30T07:06:32.279Z,20.30
2023-04-30T07:11:35.194Z,20.50
2023-04-30T07:16:38.085Z,20.80
2023-04-30T07:21:42.298Z,20.90
2023-04-30T07:26:45.189Z,21.20
2023-04-30T07:31:48.166Z,21.30
2023-04-30T07:36:52.482Z,21.40
2023-04-30T07:41:55.342Z,21.60
2023-04-30T07:46:58.351Z,21.80
2023-04-30T07:52:02.646Z,22.20
2023-04-30T07:57:05.657Z,22.60
2023-04-30T08:02:10.383Z,23.00
2023-04-30T08:07:15.607Z,23.30
2023-04-30T08:12:19.014Z,23.60
2023-04-30T08:17:21.912Z,24.00
2023-04-30T08:22:26.367Z,24.20
2023-04-30T08:27:29.254Z,24.30
2023-04-30T08:32:32.176Z,24.40
2023-04-30T08:37:36.538Z,24.50
2023-04-30T08:42:43.261Z,24.60
2023-04-30T08:47:46.911Z,24.60
2023-04-30T08:52:51.207Z,24.60
2023-04-30T08:57:54.114Z,24.70
2023-04-30T09:02:57.230Z,24.80
2023-04-30T09:08:04.166Z,24.70
2023-04-30T09:13:09.490Z,24.70
2023-04-30T09:18:15.545Z,24.80
2023-04-30T09:23:19.892Z,24.70
2023-04-30T09:28:25.479Z,24.60
2023-04-30T09:33:30.171Z,24.60
2023-04-30T09:38:34.509Z,24.60
2023-04-30T09:43:46.589Z,24.40
2023-04-30T09:48:58.224Z,24.30
2023-04-30T09:54:04.738Z,24.30
2023-04-30T09:59:09.797Z,24.30
2023-04-30T10:04:12.960Z,24.20
2023-04-30T10:09:17.872Z,24.20
2023-04-30T10:14:21.684Z,24.20
2023-04-30T10:19:26.895Z,24.20
2023-04-30T10:24:32.312Z,24.20
2023-04-30T10:29:35.182Z,24.20
2023-04-30T10:34:49.396Z,24.10
2023-04-30T10:39:54.197Z,24.00
2023-04-30T10:44:58.060Z,24.00
2023-04-30T10:50:04.901Z,24.00
2023-04-30T10:55:10.421Z,23.90
2023-04-30T11:00:27.210Z,23.90
2023-04-30T11:05:37.708Z,23.80
2023-04-30T11:10:58.716Z,23.80
2023-04-30T11:16:04.397Z,23.70
2023-04-30T11:21:10.310Z,23.50
2023-04-30T11:26:14.564Z,23.50
2023-04-30T11:31:17.994Z,23.60
2023-04-30T11:36:21.639Z,23.60
2023-04-30T11:41:27.367Z,23.60
2023-04-30T11:46:31.216Z,23.50
2023-04-30T11:51:38.456Z,23.50
2023-04-30T11:56:48.397Z,23.40
2023-04-30T12:01:51.353Z,23.40
2023-04-30T12:06:54.313Z,23.40
2023-04-30T12:11:59.106Z,23.40
2023-04-30T12:17:02.156Z,23.40
2023-04-30T12:22:05.267Z,23.40
2023-04-30T12:27:09.542Z,23.40
2023-04-30T12:32:16.252Z,23.30
2023-04-30T12:37:19.245Z,23.30
2023-04-30T12:42:23.523Z,23.30
2023-04-30T12:47:26.551Z,23.30
2023-04-30T12:52:29.475Z,23.30
2023-04-30T12:57:34.340Z,23.30
2023-04-30T13:02:37.557Z,23.20
2023-04-30T13:07:40.709Z,23.30
2023-04-30T13:12:44.976Z,23.30
2023-04-30T13:17:47.888Z,23.30
2023-04-30T13:22:50.858Z,23.30
2023-04-30T13:27:55.250Z,23.30
2023-04-30T13:32:59.304Z,23.40
2023-04-30T13:38:02.463Z,23.40
2023-04-30T13:43:07.856Z,23.30
2023-04-30T13:48:10.948Z,23.20
2023-04-30T13:53:14.251Z,23.30
2023-04-30T13:58:18.563Z,23.30
2023-04-30T14:03:21.504Z,23.40
2023-04-30T14:08:24.603Z,23.30
2023-04-30T14:13:29.563Z,23.40
2023-04-30T14:18:32.553Z,23.40
2023-04-30T14:23:35.455Z,23.50
2023-04-30T14:28:39.760Z,23.50
2023-04-30T14:33:42.694Z,23.40
2023-04-30T14:38:45.655Z,23.30
2023-04-30T14:43:49.890Z,23.40
2023-04-30T14:48:52.799Z,23.50
2023-04-30T14:53:55.739Z,23.60
2023-04-30T14:58:59.959Z,23.50
2023-04-30T15:04:03.438Z,23.50
2023-04-30T15:09:06.480Z,23.40
2023-04-30T15:14:10.801Z,23.40
2023-04-30T15:19:13.781Z,23.40
2023-04-30T15:24:17.990Z,23.40
2023-04-30T15:29:22.213Z,23.50
2023-04-30T15:34:25.089Z,23.50
2023-04-30T15:39:27.978Z,23.60
2023-04-30T15:44:32.342Z,23.70
2023-04-30T15:49:35.361Z,23.50
2023-04-30T15:54:38.280Z,23.40
2023-04-30T15:59:42.512Z,23.40
2023-04-30T16:04:45.402Z,23.40
2023-04-30T16:09:49.346Z,23.60
2023-04-30T16:14:53.675Z,23.70
2023-04-30T16:19:57.120Z,23.80
2023-04-30T16:25:00.368Z,23.80
2023-04-30T16:30:05.756Z,23.80
2023-04-30T16:35:09.502Z,23.60
2023-04-30T16:40:13.029Z,23.20
2023-04-30T16:45:17.882Z,23.00
2023-04-30T16:50:20.850Z,22.90
2023-04-30T16:55:23.906Z,22.90
2023-04-30T17:00:28.265Z,23.00
2023-04-30T17:05:31.171Z,23.10
2023-04-30T17:10:34.120Z,23.10
2023-04-30T17:15:38.630Z,23.10
2023-04-30T17:20:41.592Z,23.30
2023-04-30T17:25:44.493Z,23.30
2023-04-30T17:30:49.933Z,23.40
2023-04-30T17:35:53.117Z,23.40
2023-04-30T17:40:56.749Z,23.40
2023-04-30T17:46:01.044Z,23.40
2023-04-30T17:51:04.447Z,23.40
2023-04-30T17:56:08.785Z,23.60
2023-04-30T18:01:13.290Z,23.60
2023-04-30T18:06:16.320Z,23.50
2023-04-30T18:11:19.228Z,23.40
2023-04-30T18:16:23.754Z,23.10
2023-04-30T18:21:27.066Z,22.90
2023-04-30T18:26:30.052Z,22.70
2023-04-30T18:31:36.761Z,22.60
2023-04-30T18:36:42.896Z,22.50
2023-04-30T18:41:46.184Z,22.30
2023-04-30T18:46:50.819Z,22.20
2023-04-30T18:51:55.267Z,22.20
2023-04-30T18:56:58.411Z,22.20
2023-04-30T19:02:02.749Z,22.30
2023-04-30T19:07:05.839Z,22.10
2023-04-30T19:12:10.233Z,22.00
2023-04-30T19:17:14.829Z,22.00
2023-04-30T19:22:17.956Z,22.30
2023-04-30T19:27:20.871Z,22.40
2023-04-30T19:32:25.204Z,22.50
2023-04-30T19:37:28.148Z,22.70
2023-04-30T19:42:32.359Z,22.90
2023-04-30T19:47:38.503Z,23.00
2023-04-30T19:52:41.523Z,22.80
2023-04-30T19:57:44.630Z,22.70
2023-04-30T20:02:48.940Z,22.80
2023-04-30T20:07:52.371Z,22.80
2023-04-30T20:12:55.780Z,22.90
2023-04-30T20:18:01.069Z,22.90
2023-04-30T20:23:13.967Z,23.00
2023-04-30T20:28:18.329Z,23.10
2023-04-30T20:33:22.655Z,23.20
2023-04-30T20:38:25.930Z,23.20
2023-04-30T20:43:28.824Z,23.20
2023-04-30T20:48:33.067Z,23.20
2023-04-30T20:53:35.970Z,23.20
2023-04-30T20:58:38.854Z,23.20
2023-04-30T21:03:43.094Z,23.10
2023-04-30T21:08:46.017Z,23.20
2023-04-30T21:13:51.268Z,23.20
2023-04-30T21:18:55.774Z,23.40
2023-04-30T21:24:00.982Z,23.40
2023-04-30T21:29:03.949Z,23.30
2023-04-30T21:34:08.163Z,23.00
2023-04-30T21:39:11.145Z,23.00
2023-04-30T21:44:14.315Z,23.20
2023-04-30T21:49:18.559Z,23.30
2023-04-30T21:54:21.488Z,23.30
2023-04-30T21:59:24.855Z,23.10
2023-04-30T22:04:29.119Z,23.10
2023-04-30T22:09:32.017Z,23.10
2023-04-30T22:14:35.106Z,23.20
2023-04-30T22:19:39.372Z,23.20
2023-04-30T22:24:42.266Z,23.20
2023-04-30T22:29:46.325Z,23.20
2023-04-30T22:34:50.792Z,23.10
2023-04-30T22:39:53.726Z,23.00
2023-04-30T22:44:56.802Z,23.20
2023-04-30T22:50:01.073Z,23.20
2023-04-30T22:55:05.516Z,23.30
2023-04-30T23:00:09.742Z,23.40
2023-04-30T23:05:13.995Z,23.30
2023-04-30T23:10:17.224Z,23.40
2023-04-30T23:15:20.207Z,23.30
2023-04-30T23:20:24.486Z,23.40
2023-04-30T23:25:27.332Z,23.30
2023-04-30T23:30:30.212Z,23.30
2023-04-30T23:35:34.456Z,23.40
2023-04-30T23:40:38.258Z,23.40
2023-04-30T23:45:42.273Z,23.30
